Balao — V7AR9 — position and weather

sailwx.info

Track history (hours):
 
Tides and Currents Weather Stations Pressure Air Temp Water Temp Dewpoint Dewpoint Depression Visibility Wind Speed Wind Dir Waves Ship Positions

Balao

Last reported at 2018-Aug-17 12:16 UTC. Time now 2018-Aug-19 15:17 UTC.
Position S 36°16' E 174°58'.

Length 208 m; draft 11 m.

Type: Ship (hazmat cat A). MMSI: 538005057.

Date/timePositionNaut miles runAvg speedWind from/ knotsBaromVisibWave heightAir tempDewpointWater temp
2018-Aug-17 12:16S 36°16' E 174°58'3 9.9
2018-Aug-17 12:00S 36°19' E 174°59'5 9.8
2018-Aug-17 11:30S 36°24' E 174°59'6 9.7
2018-Aug-17 10:55S 36°30' E 174°59'4 9.6
2018-Aug-17 10:30S 36°33' E 174°59'5 9.1
2018-Aug-17 09:58S 36°38' E 174°57'510.0
2018-Aug-17 09:28S 36°42' E 174°53'6 9.7
2018-Aug-17 08:48S 36°47' E 174°48'3 9.2
2018-Aug-17 08:29S 36°50' E 174°49'2 4.4
2018-Aug-17 08:00S 36°51' E 174°47'0 0.1
2018-Aug-17 07:30S 36°51' E 174°47'0 0.0
2018-Aug-17 07:00S 36°51' E 174°47'0 0.0
2018-Aug-17 06:27S 36°51' E 174°47'0 0.0
2018-Aug-17 06:00S 36°51' E 174°47'0 0.0
2018-Aug-17 05:27S 36°51' E 174°47'0 0.0
2018-Aug-17 05:00S 36°51' E 174°47'0 0.0
2018-Aug-17 04:30S 36°51' E 174°47'0 0.0
2018-Aug-17 04:00S 36°51' E 174°47'0 0.0
2018-Aug-17 03:27S 36°51' E 174°47'0 0.0
2018-Aug-17 03:00S 36°51' E 174°47'0 0.0
2018-Aug-17 02:30S 36°51' E 174°47'0 0.0
2018-Aug-17 02:00S 36°51' E 174°47'0 0.0
2018-Aug-17 01:30S 36°51' E 174°47'0 0.0
2018-Aug-17 01:00S 36°51' E 174°47'0 0.0
2018-Aug-17 00:30S 36°51' E 174°47'0 0.0
2018-Aug-17 00:00S 36°51' E 174°47'0 0.0
2018-Aug-16 23:27S 36°51' E 174°47'0 0.0
2018-Aug-16 23:00S 36°51' E 174°47'0 0.0
2018-Aug-16 22:30S 36°51' E 174°47'0 0.0
2018-Aug-16 21:57S 36°51' E 174°47'0 0.0
2018-Aug-16 21:21S 36°51' E 174°47'0 0.0
2018-Aug-16 21:00S 36°51' E 174°47'0 0.1
2018-Aug-16 20:30S 36°51' E 174°47'2 3.9
2018-Aug-16 19:58S 36°50' E 174°49'511.4
2018-Aug-16 19:30S 36°45' E 174°50'4 8.6
2018-Aug-16 19:00S 36°41' E 174°54'3 6.9
2018-Aug-16 18:30S 36°39' E 174°56'4 8.0
2018-Aug-16 18:00S 36°35' E 174°59'3 5.8
2018-Aug-16 17:30S 36°33' E 174°60'5 9.9
2018-Aug-16 16:59S 36°28' E 174°59'5 9.2
2018-Aug-16 16:27S 36°23' E 174°59'4 8.6
2018-Aug-16 16:00S 36°19' E 174°58'  
2018-Aug-13 21:49S 34°03' E 151°44'620.0
2018-Aug-13 21:30S 34°03' E 151°37'918.4
2018-Aug-13 21:00S 34°03' E 151°26'816.5
2018-Aug-13 20:30S 34°02' E 151°16'5 6.6
2018-Aug-13 19:49S 33°58' E 151°13'0 0.0
2018-Aug-13 17:11S 33°58' E 151°13'0 0.0
2018-Aug-13 16:47S 33°58' E 151°13'1 0.0
2018-Aug-12 11:37S 33°59' E 151°12'1 8.1
2018-Aug-12 11:30S 33°59' E 151°13'510.5
2018-Aug-12 11:01S 34°01' E 151°19'712.9
2018-Aug-12 10:30S 34°08' E 151°18'  
Track history (hours):
 
Tides and Currents Weather Stations Pressure Air Temp Water Temp Dewpoint Dewpoint Depression Visibility Wind Speed Wind Dir Waves Ship Positions

Balao

Last reported at 2018-Aug-17 12:16 UTC. Time now 2018-Aug-19 15:17 UTC.
Position S 36°16' E 174°58'.

Length 208 m; draft 11 m.

Type: Ship (hazmat cat A). MMSI: 538005057.

Date/timePositionNaut miles runAvg speedWind from/ knotsBaromVisibWave heightAir tempDewpointWater temp
2018-Aug-17 12:16S 36°16' E 174°58'3 9.9
2018-Aug-17 12:00S 36°19' E 174°59'5 9.8
2018-Aug-17 11:30S 36°24' E 174°59'6 9.7
2018-Aug-17 10:55S 36°30' E 174°59'4 9.6
2018-Aug-17 10:30S 36°33' E 174°59'5 9.1
2018-Aug-17 09:58S 36°38' E 174°57'510.0
2018-Aug-17 09:28S 36°42' E 174°53'6 9.7
2018-Aug-17 08:48S 36°47' E 174°48'3 9.2
2018-Aug-17 08:29S 36°50' E 174°49'2 4.4
2018-Aug-17 08:00S 36°51' E 174°47'0 0.1
2018-Aug-17 07:30S 36°51' E 174°47'0 0.0
2018-Aug-17 07:00S 36°51' E 174°47'0 0.0
2018-Aug-17 06:27S 36°51' E 174°47'0 0.0
2018-Aug-17 06:00S 36°51' E 174°47'0 0.0
2018-Aug-17 05:27S 36°51' E 174°47'0 0.0
2018-Aug-17 05:00S 36°51' E 174°47'0 0.0
2018-Aug-17 04:30S 36°51' E 174°47'0 0.0
2018-Aug-17 04:00S 36°51' E 174°47'0 0.0
2018-Aug-17 03:27S 36°51' E 174°47'0 0.0
2018-Aug-17 03:00S 36°51' E 174°47'0 0.0
2018-Aug-17 02:30S 36°51' E 174°47'0 0.0
2018-Aug-17 02:00S 36°51' E 174°47'0 0.0
2018-Aug-17 01:30S 36°51' E 174°47'0 0.0
2018-Aug-17 01:00S 36°51' E 174°47'0 0.0
2018-Aug-17 00:30S 36°51' E 174°47'0 0.0
2018-Aug-17 00:00S 36°51' E 174°47'0 0.0
2018-Aug-16 23:27S 36°51' E 174°47'0 0.0
2018-Aug-16 23:00S 36°51' E 174°47'0 0.0
2018-Aug-16 22:30S 36°51' E 174°47'0 0.0
2018-Aug-16 21:57S 36°51' E 174°47'0 0.0
2018-Aug-16 21:21S 36°51' E 174°47'0 0.0
2018-Aug-16 21:00S 36°51' E 174°47'0 0.1
2018-Aug-16 20:30S 36°51' E 174°47'2 3.9
2018-Aug-16 19:58S 36°50' E 174°49'511.4
2018-Aug-16 19:30S 36°45' E 174°50'4 8.6
2018-Aug-16 19:00S 36°41' E 174°54'3 6.9
2018-Aug-16 18:30S 36°39' E 174°56'4 8.0
2018-Aug-16 18:00S 36°35' E 174°59'3 5.8
2018-Aug-16 17:30S 36°33' E 174°60'5 9.9
2018-Aug-16 16:59S 36°28' E 174°59'5 9.2
2018-Aug-16 16:27S 36°23' E 174°59'4 8.6
2018-Aug-16 16:00S 36°19' E 174°58'  
2018-Aug-13 21:49S 34°03' E 151°44'620.0
2018-Aug-13 21:30S 34°03' E 151°37'918.4
2018-Aug-13 21:00S 34°03' E 151°26'816.5
2018-Aug-13 20:30S 34°02' E 151°16'5 6.6
2018-Aug-13 19:49S 33°58' E 151°13'0 0.0
2018-Aug-13 17:11S 33°58' E 151°13'0 0.0
2018-Aug-13 16:47S 33°58' E 151°13'1 0.0
2018-Aug-12 11:37S 33°59' E 151°12'1 8.1
2018-Aug-12 11:30S 33°59' E 151°13'510.5
2018-Aug-12 11:01S 34°01' E 151°19'712.9
2018-Aug-12 10:30S 34°08' E 151°18'  

Dump ship's entire track history